Time;durP1;ratioP1;P1;durP2;ratioP2;P2;SDS_P1;SDS_P2;PMS_P1;PMS_P2;Temp;Humidity;BMP_temperature;BMP_pressure;BME280_temperature;BME280_humidity;BME280_pressure;Samples;Min_cycle;Max_cycle;Signal;HPM_P1;HPM_P2
2021/06/24 00:00:00;;;;;;;13.88;10.20;;;;;;;;;;10368400;28;20092;-80
2021/06/24 00:05:02;;;;;;;19.33;10.70;;;;;;;;;;10383755;28;20041;-81
2021/06/24 00:10:04;;;;;;;20.15;10.10;;;;;;;;;;10368416;28;20095;-81
2021/06/24 00:15:06;;;;;;;17.42;10.43;;;;;;;;;;10368261;28;20112;-80
2021/06/24 00:20:07;;;;;;;14.73;9.80;;;;;;;;;;10367058;28;20084;-81
2021/06/24 00:25:09;;;;;;;18.58;12.65;;;;;;;;;;10367214;28;20085;-81
2021/06/24 00:30:12;;;;;;;21.75;11.32;;;;;;;;;;10365887;28;20185;-80
2021/06/24 00:35:14;;;;;;;16.13;11.25;;;;;;;;;;10367556;28;20089;-81
2021/06/24 00:40:16;;;;;;;19.00;11.68;;;;;;;;;;10367379;28;20081;-81
2021/06/24 00:45:18;;;;;;;16.15;11.68;;;;;;;;;;10372698;28;20081;-81
2021/06/24 00:50:19;;;;;;;18.50;12.30;;;;;;;;;;10368535;28;20089;-81
2021/06/24 01:00:42;;;;;;;21.30;11.27;;;;;;;;;;10368416;28;20045;-81
2021/06/24 01:05:44;;;;;;;21.10;10.35;;;;;;;;;;10387080;28;20121;-82
2021/06/24 01:10:47;;;;;;;16.77;11.05;;;;;;;;;;10366586;28;20132;-82
2021/06/24 01:15:48;;;;;;;15.18;10.32;;;;;;;;;;10366440;28;20108;-82
2021/06/24 01:20:50;;;;;;;18.98;11.32;;;;;;;;;;10366095;28;20097;-81
2021/06/24 01:25:52;;;;;;;22.63;10.73;;;;;;;;;;10365039;28;20088;-82
2021/06/24 01:30:53;;;;;;;16.00;10.73;;;;;;;;;;10364637;28;20065;-82
2021/06/24 01:35:59;;;;;;;18.52;11.32;;;;;;;;;;10365237;28;20084;-82
2021/06/24 01:41:01;;;;;;;20.13;12.07;;;;;;;;;;10364275;28;20552;-82
2021/06/24 01:46:02;;;;;;;17.95;11.15;;;;;;;;;;10373893;28;20076;-82
2021/06/24 01:51:04;;;;;;;20.42;12.60;;;;;;;;;;10372729;28;20057;-82
2021/06/24 01:56:06;;;;;;;20.92;12.52;;;;;;;;;;10373934;28;20115;-81
2021/06/24 02:01:07;;;;;;;19.25;10.70;;;;;;;;;;10374225;28;20513;-82
2021/06/24 02:06:09;;;;;;;17.30;12.07;;;;;;;;;;10367107;28;20073;-82
2021/06/24 02:11:11;;;;;;;19.83;11.07;;;;;;;;;;10379673;28;20478;-82
2021/06/24 02:16:12;;;;;;;23.55;13.27;;;;;;;;;;10379339;28;20054;-82
2021/06/24 02:21:14;;;;;;;20.58;12.70;;;;;;;;;;10379219;28;20115;-82
2021/06/24 02:26:16;;;;;;;17.58;11.27;;;;;;;;;;10377297;28;20458;-82
2021/06/24 02:31:17;;;;;;;21.55;12.52;;;;;;;;;;10378630;28;20050;-82
2021/06/24 02:36:19;;;;;;;25.10;12.48;;;;;;;;;;10378247;28;20085;-82
2021/06/24 02:41:20;;;;;;;21.27;11.73;;;;;;;;;;10378651;28;20490;-82
2021/06/24 02:46:22;;;;;;;24.48;12.48;;;;;;;;;;10377988;28;20057;-82
2021/06/24 02:51:24;;;;;;;21.85;12.35;;;;;;;;;;10378022;28;20529;-82
2021/06/24 02:56:25;;;;;;;19.30;12.00;;;;;;;;;;10377002;28;20118;-82
2021/06/24 03:01:27;;;;;;;17.27;12.40;;;;;;;;;;10394659;28;20100;-82
2021/06/24 03:06:28;;;;;;;18.50;12.25;;;;;;;;;;10371983;28;20084;-82
2021/06/24 03:11:30;;;;;;;19.23;12.75;;;;;;;;;;10370119;28;20053;-82
2021/06/24 03:16:31;;;;;;;20.25;11.77;;;;;;;;;;10370578;28;20108;-82
2021/06/24 03:21:33;;;;;;;17.45;11.98;;;;;;;;;;10370160;28;20504;-82
2021/06/24 03:26:35;;;;;;;17.80;11.02;;;;;;;;;;10385281;28;20053;-82
2021/06/24 03:31:37;;;;;;;18.98;11.50;;;;;;;;;;10370911;28;20053;-82
2021/06/24 03:36:38;;;;;;;21.83;12.50;;;;;;;;;;10371191;28;20503;-82
2021/06/24 03:41:40;;;;;;;19.08;12.77;;;;;;;;;;10390609;28;20045;-81
2021/06/24 03:46:41;;;;;;;21.80;13.60;;;;;;;;;;10372481;28;20045;-82
2021/06/24 03:51:43;;;;;;;20.45;13.50;;;;;;;;;;10369023;28;20065;-82
2021/06/24 03:56:45;;;;;;;18.75;12.90;;;;;;;;;;10369378;28;20058;-82
2021/06/24 04:01:46;;;;;;;23.88;13.02;;;;;;;;;;10368831;28;20104;-82
2021/06/24 04:06:48;;;;;;;20.80;12.00;;;;;;;;;;10368143;28;20092;-82
2021/06/24 04:11:50;;;;;;;17.77;10.98;;;;;;;;;;10368105;28;20104;-82
2021/06/24 04:16:51;;;;;;;20.30;11.43;;;;;;;;;;10368376;28;20597;-82
2021/06/24 04:21:53;;;;;;;22.83;12.73;;;;;;;;;;10368137;28;20049;-82
2021/06/24 04:26:55;;;;;;;20.75;12.55;;;;;;;;;;10366808;28;20470;-82
2021/06/24 04:31:58;;;;;;;22.05;12.80;;;;;;;;;;10368001;28;20085;-82
2021/06/24 04:37:00;;;;;;;21.08;12.90;;;;;;;;;;10365791;28;20086;-82
2021/06/24 04:42:01;;;;;;;20.45;12.85;;;;;;;;;;10367799;28;20050;-82
2021/06/24 04:47:03;;;;;;;17.77;14.05;;;;;;;;;;10367523;28;20435;-82
2021/06/24 04:52:05;;;;;;;19.15;12.10;;;;;;;;;;10366235;28;20423;-82
2021/06/24 04:57:07;;;;;;;18.30;11.93;;;;;;;;;;10367456;28;20053;-82
2021/06/24 05:02:08;;;;;;;20.40;13.10;;;;;;;;;;10361949;28;20100;-82
2021/06/24 05:07:10;;;;;;;16.55;10.90;;;;;;;;;;10362000;28;20050;-82
2021/06/24 05:12:12;;;;;;;17.75;11.30;;;;;;;;;;10381793;28;20062;-82
2021/06/24 05:17:14;;;;;;;14.73;9.98;;;;;;;;;;10367489;28;20487;-82
2021/06/24 05:22:16;;;;;;;16.38;11.18;;;;;;;;;;10365119;28;20553;-82
2021/06/24 05:27:18;;;;;;;19.95;12.45;;;;;;;;;;10366363;28;20050;-82
2021/06/24 05:32:19;;;;;;;18.23;11.80;;;;;;;;;;10366039;28;20534;-82
2021/06/24 05:37:21;;;;;;;16.92;10.77;;;;;;;;;;10379416;28;20057;-82
2021/06/24 05:42:22;;;;;;;15.68;10.68;;;;;;;;;;10381591;28;20107;-82
2021/06/24 05:47:24;;;;;;;15.70;11.00;;;;;;;;;;10381906;28;20057;-82
2021/06/24 05:52:26;;;;;;;18.77;10.73;;;;;;;;;;10381364;28;20054;-82
2021/06/24 05:57:27;;;;;;;19.63;10.73;;;;;;;;;;10366279;28;20943;-82
2021/06/24 06:02:29;;;;;;;17.98;10.55;;;;;;;;;;10365365;28;20053;-82
2021/06/24 06:07:31;;;;;;;16.98;10.80;;;;;;;;;;10366535;28;20104;-82
2021/06/24 06:12:32;;;;;;;14.38;10.65;;;;;;;;;;10356580;28;20408;-81
2021/06/24 06:17:34;;;;;;;13.70;10.30;;;;;;;;;;10356012;28;20085;-82
2021/06/24 06:22:36;;;;;;;17.13;11.15;;;;;;;;;;10389174;28;20104;-81
2021/06/24 06:27:37;;;;;;;13.73;10.45;;;;;;;;;;10348654;28;20053;-83
2021/06/24 06:32:39;;;;;;;19.98;11.07;;;;;;;;;;10345129;28;20080;-83
2021/06/24 06:37:48;;;;;;;18.33;11.00;;;;;;;;;;10359896;28;20105;-84
2021/06/24 06:42:50;;;;;;;15.05;9.77;;;;;;;;;;10361222;28;20089;-85
2021/06/24 06:47:52;;;;;;;16.80;9.95;;;;;;;;;;10372101;28;20112;-83
2021/06/24 06:52:53;;;;;;;16.80;9.98;;;;;;;;;;10373620;28;20085;-84
2021/06/24 06:57:56;;;;;;;15.70;10.10;;;;;;;;;;10373177;28;20057;-84
2021/06/24 07:03:00;;;;;;;14.10;10.15;;;;;;;;;;10389910;28;20462;-83
2021/06/24 07:08:02;;;;;;;16.63;9.98;;;;;;;;;;10371338;28;20046;-84
2021/06/24 07:13:04;;;;;;;20.63;10.50;;;;;;;;;;10373176;28;20077;-83
2021/06/24 07:18:11;;;;;;;15.70;9.43;;;;;;;;;;10384095;28;20060;-84
2021/06/24 07:23:12;;;;;;;17.48;9.52;;;;;;;;;;10362140;28;20108;-85
2021/06/24 07:28:20;;;;;;;15.93;9.70;;;;;;;;;;10359744;28;20073;-85
2021/06/24 07:33:22;;;;;;;14.00;9.15;;;;;;;;;;10358915;28;20081;-83
2021/06/24 07:38:23;;;;;;;13.70;9.15;;;;;;;;;;10336505;28;20054;-83
2021/06/24 07:43:25;;;;;;;16.92;9.55;;;;;;;;;;10354133;28;20541;-82
2021/06/24 07:48:27;;;;;;;18.23;9.48;;;;;;;;;;10370306;28;20077;-82
2021/06/24 07:53:28;;;;;;;18.98;10.27;;;;;;;;;;10368410;28;20450;-82
2021/06/24 07:58:30;;;;;;;15.60;9.40;;;;;;;;;;10366812;28;20499;-81
2021/06/24 08:03:37;;;;;;;15.85;10.13;;;;;;;;;;10352127;28;20074;-81
2021/06/24 08:08:38;;;;;;;14.10;9.82;;;;;;;;;;10328789;28;20058;-81
2021/06/24 08:13:40;;;;;;;13.85;8.68;;;;;;;;;;10358311;28;20054;-81
2021/06/24 08:18:57;;;;;;;14.45;9.27;;;;;;;;;;10369016;28;20391;-81
2021/06/24 08:23:59;;;;;;;17.30;8.63;;;;;;;;;;10367840;28;20054;-81
2021/06/24 08:29:03;;;;;;;19.95;9.13;;;;;;;;;;10368797;28;20455;-81
2021/06/24 08:34:05;;;;;;;17.17;8.10;;;;;;;;;;10367589;28;20054;-81
2021/06/24 08:39:09;;;;;;;13.73;7.80;;;;;;;;;;10368450;28;20451;-81
2021/06/24 08:44:10;;;;;;;13.15;7.85;;;;;;;;;;10368283;28;20073;-81
2021/06/24 08:49:12;;;;;;;15.70;9.70;;;;;;;;;;10341443;28;20047;-81
2021/06/24 08:54:14;;;;;;;12.85;8.93;;;;;;;;;;10327013;28;20725;-81
2021/06/24 08:59:16;;;;;;;16.45;9.40;;;;;;;;;;10343631;28;20045;-81
2021/06/24 09:04:18;;;;;;;17.88;10.63;;;;;;;;;;10365114;28;20049;-80
2021/06/24 09:09:24;;;;;;;16.73;10.75;;;;;;;;;;10361804;28;20088;-80
2021/06/24 09:14:36;;;;;;;13.43;9.60;;;;;;;;;;10366729;28;20104;-80
2021/06/24 09:19:42;;;;;;;17.35;10.23;;;;;;;;;;10365833;28;20046;-82
2021/06/24 09:24:49;;;;;;;15.52;10.63;;;;;;;;;;10365348;28;20074;-81
2021/06/24 09:30:06;;;;;;;14.30;10.65;;;;;;;;;;10365849;28;20108;-81
2021/06/24 09:35:09;;;;;;;15.88;10.82;;;;;;;;;;10365413;28;20070;-82
2021/06/24 09:40:13;;;;;;;15.57;10.52;;;;;;;;;;10380247;28;20081;-81
2021/06/24 09:45:15;;;;;;;19.50;10.45;;;;;;;;;;10365218;28;20080;-81
2021/06/24 09:50:18;;;;;;;18.75;12.32;;;;;;;;;;10364559;28;20080;-80
2021/06/24 09:55:30;;;;;;;17.60;12.93;;;;;;;;;;10352304;28;20137;-81
2021/06/24 10:00:33;;;;;;;16.23;12.32;;;;;;;;;;10347843;28;20049;-81
2021/06/24 10:05:36;;;;;;;20.25;12.60;;;;;;;;;;10369534;28;20053;-82
2021/06/24 10:10:40;;;;;;;19.08;12.30;;;;;;;;;;10371686;28;20054;-84
2021/06/24 10:15:43;;;;;;;18.83;13.70;;;;;;;;;;10373480;28;20161;-83
2021/06/24 10:20:45;;;;;;;18.00;12.65;;;;;;;;;;10370704;28;20050;-82
2021/06/24 10:25:48;;;;;;;20.55;14.30;;;;;;;;;;10371463;28;20069;-80
2021/06/24 10:30:50;;;;;;;18.33;12.65;;;;;;;;;;10356594;28;20554;-80
2021/06/24 10:35:52;;;;;;;20.25;14.07;;;;;;;;;;10357028;28;20058;-82
2021/06/24 10:40:55;;;;;;;20.83;14.18;;;;;;;;;;10361351;28;20046;-83
2021/06/24 10:46:13;;;;;;;21.42;14.77;;;;;;;;;;10363349;28;20112;-84
2021/06/24 10:51:16;;;;;;;21.48;15.02;;;;;;;;;;10370603;28;20046;-83
2021/06/24 10:56:22;;;;;;;19.80;14.80;;;;;;;;;;10362173;28;20096;-82
2021/06/24 11:01:46;;;;;;;22.50;17.05;;;;;;;;;;10346114;28;20073;-82
2021/06/24 11:06:51;;;;;;;21.15;16.20;;;;;;;;;;10368673;28;20132;-82
2021/06/24 11:11:53;;;;;;;22.70;16.58;;;;;;;;;;10368736;28;20061;-82
2021/06/24 11:16:55;;;;;;;17.48;15.25;;;;;;;;;;10368738;28;20053;-82
2021/06/24 11:21:57;;;;;;;23.77;17.92;;;;;;;;;;10368952;28;20132;-82
2021/06/24 11:27:02;;;;;;;24.73;17.27;;;;;;;;;;10368069;28;20093;-83
2021/06/24 11:32:28;;;;;;;24.85;17.77;;;;;;;;;;10368869;28;20472;-83
2021/06/24 11:37:34;;;;;;;26.20;17.98;;;;;;;;;;10357749;28;20057;-81
2021/06/24 11:42:39;;;;;;;23.95;16.70;;;;;;;;;;10340842;28;20057;-82
2021/06/24 11:47:45;;;;;;;22.67;16.42;;;;;;;;;;10334563;28;20104;-84
2021/06/24 12:03:49;;;;;;;21.55;17.10;;;;;;;;;;10368559;28;20096;-83
2021/06/24 12:08:58;;;;;;;21.90;16.88;;;;;;;;;;10368725;28;20049;-83
2021/06/24 12:14:13;;;;;;;22.25;18.20;;;;;;;;;;10367722;28;20077;-83
2021/06/24 12:19:15;;;;;;;24.65;20.02;;;;;;;;;;10366330;28;20085;-83
2021/06/24 12:24:39;;;;;;;19.52;16.52;;;;;;;;;;10367354;28;20077;-84
2021/06/24 12:29:41;;;;;;;18.98;15.95;;;;;;;;;;10367461;28;20473;-85
2021/06/24 12:34:44;;;;;;;24.63;18.15;;;;;;;;;;10365553;28;20112;-83
2021/06/24 12:39:48;;;;;;;21.85;15.43;;;;;;;;;;10382439;28;20142;-84
2021/06/24 12:44:51;;;;;;;24.25;17.90;;;;;;;;;;10363175;28;20101;-84
2021/06/24 12:49:56;;;;;;;22.38;18.08;;;;;;;;;;10341538;28;20050;-84
2021/06/24 12:55:39;;;;;;;22.60;16.70;;;;;;;;;;10325356;28;20470;-83
2021/06/24 13:00:49;;;;;;;24.63;19.02;;;;;;;;;;10337778;28;20551;-84
2021/06/24 13:06:05;;;;;;;22.42;17.05;;;;;;;;;;10341675;28;20061;-81
2021/06/24 13:11:15;;;;;;;20.83;17.17;;;;;;;;;;10378801;28;20061;-82
2021/06/24 13:16:23;;;;;;;25.27;20.23;;;;;;;;;;10325710;28;20049;-81
2021/06/24 13:21:25;;;;;;;21.13;17.05;;;;;;;;;;10324272;28;20046;-81
2021/06/24 13:26:27;;;;;;;19.75;16.70;;;;;;;;;;10339055;28;20076;-82
2021/06/24 13:31:31;;;;;;;26.63;20.50;;;;;;;;;;10365315;28;20084;-83
2021/06/24 13:36:33;;;;;;;19.58;15.93;;;;;;;;;;10362328;28;20064;-84
2021/06/24 13:41:36;;;;;;;18.67;13.90;;;;;;;;;;10364547;28;20057;-81
2021/06/24 13:46:38;;;;;;;17.45;14.85;;;;;;;;;;10340279;28;20484;-81
2021/06/24 13:51:45;;;;;;;15.57;12.95;;;;;;;;;;10301234;28;20062;-82
2021/06/24 13:56:47;;;;;;;19.13;14.15;;;;;;;;;;10295244;28;20621;-82
2021/06/24 14:01:50;;;;;;;17.92;15.07;;;;;;;;;;10311891;28;20144;-82
2021/06/24 14:06:51;;;;;;;16.20;12.77;;;;;;;;;;10312055;28;20043;-82
2021/06/24 14:11:53;;;;;;;18.08;14.45;;;;;;;;;;10281028;28;20062;-82
2021/06/24 14:16:55;;;;;;;17.10;12.90;;;;;;;;;;10318201;28;20484;-80
2021/06/24 14:21:58;;;;;;;16.00;11.52;;;;;;;;;;10320848;28;20911;-82
2021/06/24 14:27:01;;;;;;;14.30;12.27;;;;;;;;;;10321412;28;20110;-81
2021/06/24 14:32:03;;;;;;;15.88;9.23;;;;;;;;;;10321293;28;20586;-81
2021/06/24 14:37:04;;;;;;;11.52;8.63;;;;;;;;;;10319035;28;20050;-81
2021/06/24 14:42:06;;;;;;;7.63;6.57;;;;;;;;;;10308162;28;20109;-81
2021/06/24 14:47:19;;;;;;;8.07;6.25;;;;;;;;;;10320304;28;20128;-81
2021/06/24 14:52:21;;;;;;;14.73;8.57;;;;;;;;;;10323697;28;20524;-81
2021/06/24 14:57:23;;;;;;;9.07;6.80;;;;;;;;;;10328355;28;20452;-81
2021/06/24 15:02:24;;;;;;;9.40;6.90;;;;;;;;;;10323973;28;20082;-81
2021/06/24 15:07:26;;;;;;;11.15;8.07;;;;;;;;;;10327070;28;20058;-80
2021/06/24 15:12:28;;;;;;;12.80;9.07;;;;;;;;;;10321813;28;20061;-79
2021/06/24 15:17:29;;;;;;;12.70;9.95;;;;;;;;;;10301656;28;20050;-80
2021/06/24 15:22:31;;;;;;;13.50;9.35;;;;;;;;;;10313940;28;20147;-80
2021/06/24 15:27:33;;;;;;;13.88;9.00;;;;;;;;;;10284792;28;20122;-81
2021/06/24 15:32:36;;;;;;;14.27;8.50;;;;;;;;;;10299421;28;20050;-80
2021/06/24 15:37:38;;;;;;;10.40;8.27;;;;;;;;;;10312819;28;20129;-80
2021/06/24 15:42:44;;;;;;;10.18;8.73;;;;;;;;;;10320027;28;20068;-80
2021/06/24 15:47:48;;;;;;;9.80;8.68;;;;;;;;;;10285904;28;20086;-81
2021/06/24 15:52:50;;;;;;;9.13;6.78;;;;;;;;;;10303243;28;20077;-80
2021/06/24 15:57:52;;;;;;;8.98;6.50;;;;;;;;;;10284763;28;20058;-81
2021/06/24 16:02:54;;;;;;;8.27;6.30;;;;;;;;;;10305569;28;20741;-80
2021/06/24 16:07:56;;;;;;;13.15;6.07;;;;;;;;;;10324394;28;20058;-80
2021/06/24 16:12:58;;;;;;;12.52;6.95;;;;;;;;;;10321177;28;20140;-80
2021/06/24 16:18:01;;;;;;;8.57;7.07;;;;;;;;;;10317223;28;20078;-80
2021/06/24 16:23:03;;;;;;;14.05;6.65;;;;;;;;;;10323268;28;20412;-79
2021/06/24 16:28:05;;;;;;;11.05;6.22;;;;;;;;;;10320059;28;20050;-80
2021/06/24 16:33:06;;;;;;;10.35;5.38;;;;;;;;;;10311243;28;20085;-80
2021/06/24 16:38:08;;;;;;;8.20;5.88;;;;;;;;;;10308909;28;20087;-80
2021/06/24 16:43:10;;;;;;;8.98;6.00;;;;;;;;;;10310923;28;20093;-80
2021/06/24 16:48:12;;;;;;;10.13;6.70;;;;;;;;;;10324122;28;20081;-81
2021/06/24 16:53:14;;;;;;;8.32;6.80;;;;;;;;;;10323169;28;20567;-80
2021/06/24 16:58:15;;;;;;;8.60;5.20;;;;;;;;;;10318348;28;20161;-80
2021/06/24 17:03:17;;;;;;;8.95;5.75;;;;;;;;;;10318804;28;20077;-82
2021/06/24 17:08:19;;;;;;;10.93;6.07;;;;;;;;;;10322921;28;20054;-81
2021/06/24 17:13:20;;;;;;;9.40;6.88;;;;;;;;;;10322456;28;20093;-82
2021/06/24 17:18:23;;;;;;;12.57;7.45;;;;;;;;;;10322700;28;20061;-80
2021/06/24 17:23:24;;;;;;;11.23;8.02;;;;;;;;;;10304737;28;20478;-81
2021/06/24 17:28:26;;;;;;;11.88;8.25;;;;;;;;;;10280504;28;20129;-81
2021/06/24 17:33:28;;;;;;;11.40;9.18;;;;;;;;;;10299224;28;20515;-82
2021/06/24 17:38:29;;;;;;;10.48;8.75;;;;;;;;;;10296599;28;20062;-82
2021/06/24 17:43:31;;;;;;;9.10;6.97;;;;;;;;;;10314006;28;20090;-82
2021/06/24 17:48:34;;;;;;;9.45;7.40;;;;;;;;;;10309650;28;20054;-83
2021/06/24 17:53:36;;;;;;;10.75;8.30;;;;;;;;;;10312526;28;20058;-82
2021/06/24 17:58:37;;;;;;;11.27;7.38;;;;;;;;;;10286260;28;20130;-82
2021/06/24 18:03:39;;;;;;;9.20;6.68;;;;;;;;;;10287804;28;20519;-81
2021/06/24 18:08:41;;;;;;;10.57;7.93;;;;;;;;;;10316847;28;20104;-80
2021/06/24 18:13:43;;;;;;;11.40;7.47;;;;;;;;;;10318027;28;20055;-79
2021/06/24 18:18:44;;;;;;;13.82;8.48;;;;;;;;;;10285391;28;20149;-79
2021/06/24 18:23:46;;;;;;;10.73;8.73;;;;;;;;;;10295757;28;20158;-79
2021/06/24 18:28:48;;;;;;;14.32;10.40;;;;;;;;;;10329443;28;20081;-79
2021/06/24 18:33:50;;;;;;;13.68;9.35;;;;;;;;;;10329638;28;20491;-81
2021/06/24 18:38:51;;;;;;;16.90;10.18;;;;;;;;;;10328602;28;20081;-81
2021/06/24 18:43:53;;;;;;;13.80;8.68;;;;;;;;;;10329427;28;20133;-80
2021/06/24 18:48:54;;;;;;;12.20;9.10;;;;;;;;;;10330529;28;20054;-80
2021/06/24 18:53:56;;;;;;;14.55;9.48;;;;;;;;;;10329277;28;20412;-81
2021/06/24 18:58:58;;;;;;;14.00;10.20;;;;;;;;;;10330727;28;20492;-79
2021/06/24 19:03:59;;;;;;;13.55;10.68;;;;;;;;;;10328672;28;20050;-80
2021/06/24 19:09:01;;;;;;;15.63;10.32;;;;;;;;;;10326201;28;20042;-82
2021/06/24 19:14:03;;;;;;;19.63;13.05;;;;;;;;;;10319608;28;20120;-80
2021/06/24 19:19:05;;;;;;;24.65;14.82;;;;;;;;;;10313986;28;20078;-81
2021/06/24 19:24:07;;;;;;;23.98;13.98;;;;;;;;;;10325313;28;20107;-81
2021/06/24 19:29:08;;;;;;;24.52;15.75;;;;;;;;;;10313067;28;20507;-81
2021/06/24 19:34:10;;;;;;;21.00;13.88;;;;;;;;;;10310131;28;20086;-81
2021/06/24 19:39:12;;;;;;;17.00;13.02;;;;;;;;;;10322503;28;20054;-81
2021/06/24 19:44:13;;;;;;;12.80;10.63;;;;;;;;;;10319995;28;20082;-81
2021/06/24 19:49:15;;;;;;;25.98;15.73;;;;;;;;;;10304218;28;20129;-81
2021/06/24 19:54:17;;;;;;;22.40;15.68;;;;;;;;;;10325894;28;20062;-81
2021/06/24 19:59:19;;;;;;;34.10;18.90;;;;;;;;;;10318047;28;20093;-81
2021/06/24 20:04:21;;;;;;;25.92;15.85;;;;;;;;;;10317089;28;20051;-81
2021/06/24 20:09:22;;;;;;;17.83;14.05;;;;;;;;;;10327157;28;20101;-81
2021/06/24 20:14:24;;;;;;;25.90;16.23;;;;;;;;;;10326290;28;20566;-81
2021/06/24 20:19:26;;;;;;;21.42;14.02;;;;;;;;;;10327302;28;20096;-81
2021/06/24 20:24:28;;;;;;;34.13;17.88;;;;;;;;;;10326259;28;20090;-81
2021/06/24 20:29:31;;;;;;;22.73;17.20;;;;;;;;;;10325718;28;20078;-81
2021/06/24 20:34:32;;;;;;;54.70;22.75;;;;;;;;;;10326888;28;20101;-81
2021/06/24 20:39:34;;;;;;;25.75;16.90;;;;;;;;;;10326146;28;20101;-81
2021/06/24 20:44:36;;;;;;;32.83;17.38;;;;;;;;;;10326119;28;20262;-81
2021/06/24 20:49:37;;;;;;;35.88;19.52;;;;;;;;;;10326763;28;20105;-81
2021/06/24 20:54:39;;;;;;;34.67;19.65;;;;;;;;;;10326632;28;20085;-80
2021/06/24 20:59:41;;;;;;;23.75;15.77;;;;;;;;;;10327501;28;20101;-81
2021/06/24 21:04:42;;;;;;;31.65;18.52;;;;;;;;;;10326007;28;20054;-81
2021/06/24 21:09:44;;;;;;;22.05;14.52;;;;;;;;;;10324242;28;20113;-81
2021/06/24 21:14:46;;;;;;;22.95;15.32;;;;;;;;;;10323989;28;20124;-81
2021/06/24 21:19:47;;;;;;;27.92;17.15;;;;;;;;;;10325179;28;20538;-81
2021/06/24 21:24:50;;;;;;;25.85;17.30;;;;;;;;;;10323845;28;20144;-81
2021/06/24 21:29:51;;;;;;;19.15;13.75;;;;;;;;;;10324083;28;20090;-81
2021/06/24 21:34:53;;;;;;;14.05;10.77;;;;;;;;;;10324466;28;20097;-81
2021/06/24 21:39:54;;;;;;;22.23;15.27;;;;;;;;;;10324772;28;20084;-81
2021/06/24 21:44:56;;;;;;;26.13;14.32;;;;;;;;;;10324001;28;20117;-81
2021/06/24 21:49:58;;;;;;;21.75;12.93;;;;;;;;;;10325343;28;20050;-81
2021/06/24 21:55:00;;;;;;;15.77;11.30;;;;;;;;;;10324399;28;20085;-81
2021/06/24 22:00:03;;;;;;;22.75;14.52;;;;;;;;;;10328039;28;20542;-80
2021/06/24 22:05:05;;;;;;;20.73;14.43;;;;;;;;;;10333589;28;20413;-80
2021/06/24 22:10:07;;;;;;;26.65;15.70;;;;;;;;;;10333706;28;20059;-81
2021/06/24 22:15:09;;;;;;;26.83;14.27;;;;;;;;;;10331147;28;20124;-81
2021/06/24 22:20:10;;;;;;;21.90;14.38;;;;;;;;;;10331632;28;20101;-83
2021/06/24 22:25:12;;;;;;;30.23;18.15;;;;;;;;;;10331972;28;20120;-81
2021/06/24 22:30:14;;;;;;;22.60;14.55;;;;;;;;;;10332154;28;20050;-81
2021/06/24 22:35:16;;;;;;;20.00;14.10;;;;;;;;;;10330885;28;20120;-81
2021/06/24 22:40:18;;;;;;;21.63;14.75;;;;;;;;;;10332267;28;20081;-81
2021/06/24 22:45:19;;;;;;;21.77;14.20;;;;;;;;;;10330275;28;20469;-81
2021/06/24 22:50:21;;;;;;;21.85;14.20;;;;;;;;;;10331569;28;20050;-81
2021/06/24 22:55:22;;;;;;;20.10;13.68;;;;;;;;;;10331021;28;20090;-81
2021/06/24 23:00:24;;;;;;;26.13;16.00;;;;;;;;;;10330895;28;20488;-81
2021/06/24 23:05:26;;;;;;;25.35;17.27;;;;;;;;;;10330893;28;20224;-82
2021/06/24 23:10:28;;;;;;;26.90;19.42;;;;;;;;;;10329355;28;20479;-82
2021/06/24 23:15:39;;;;;;;23.98;18.90;;;;;;;;;;10330217;28;20051;-81
2021/06/24 23:20:41;;;;;;;40.80;26.17;;;;;;;;;;10330268;28;20054;-81
2021/06/24 23:25:42;;;;;;;28.13;19.05;;;;;;;;;;10329949;28;20140;-82
2021/06/24 23:30:44;;;;;;;25.15;18.83;;;;;;;;;;10330763;28;20084;-82
2021/06/24 23:35:45;;;;;;;22.48;19.27;;;;;;;;;;10330776;28;20061;-82
2021/06/24 23:40:47;;;;;;;22.40;19.98;;;;;;;;;;10330066;28;20464;-82
2021/06/24 23:45:49;;;;;;;26.00;21.13;;;;;;;;;;10329991;28;20086;-82
2021/06/24 23:50:50;;;;;;;24.52;20.25;;;;;;;;;;10329247;28;20046;-82
2021/06/24 23:55:52;;;;;;;29.75;25.08;;;;;;;;;;10328850;28;20113;-82
